createdAt,value
2022-12-05T00:01:11.442Z,76.38
2022-12-05T00:03:38.261Z,76.46
2022-12-05T00:06:05.780Z,75.63
2022-12-05T00:08:32.516Z,75.81
2022-12-05T00:10:59.547Z,75.42
2022-12-05T00:13:26.375Z,76.04
2022-12-05T00:15:53.108Z,76.25
2022-12-05T00:18:19.938Z,76.32
2022-12-05T00:20:48.530Z,76.02
2022-12-05T00:23:15.323Z,76.10
2022-12-05T00:25:42.211Z,76.55
2022-12-05T00:28:08.930Z,76.58
2022-12-05T00:30:35.654Z,75.87
2022-12-05T00:33:03.035Z,75.59
2022-12-05T00:35:29.730Z,76.07
2022-12-05T00:37:56.671Z,75.94
2022-12-05T00:40:23.551Z,75.41
2022-12-05T00:42:52.404Z,75.49
2022-12-05T00:45:19.377Z,76.30
2022-12-05T00:47:46.220Z,75.68
2022-12-05T00:50:12.939Z,75.30
2022-12-05T00:52:39.642Z,74.50
2022-12-05T00:55:06.929Z,74.91
2022-12-05T00:57:33.631Z,74.71
2022-12-05T01:00:00.433Z,74.54
2022-12-05T01:02:27.311Z,74.56
2022-12-05T01:04:54.536Z,74.55
2022-12-05T01:07:21.280Z,73.75
2022-12-05T01:09:48.133Z,74.49
2022-12-05T01:12:14.826Z,74.98
2022-12-05T01:14:41.535Z,74.76
2022-12-05T01:17:08.417Z,74.06
2022-12-05T01:19:35.317Z,75.05
2022-12-05T01:22:02.136Z,74.77
2022-12-05T01:24:30.080Z,74.84
2022-12-05T01:26:57.735Z,73.88
2022-12-05T01:29:25.684Z,74.17
2022-12-05T01:31:53.155Z,73.99
2022-12-05T01:34:20.033Z,74.21
2022-12-05T01:36:47.494Z,74.49
2022-12-05T01:39:14.860Z,74.38
2022-12-05T01:41:47.304Z,73.57
2022-12-05T01:44:16.316Z,72.75
2022-12-05T01:46:51.538Z,72.55
2022-12-05T01:49:27.299Z,73.17
2022-12-05T01:51:59.036Z,72.39
2022-12-05T01:54:25.916Z,73.50
2022-12-05T01:56:57.724Z,72.81
2022-12-05T01:59:27.385Z,73.26
2022-12-05T02:01:54.648Z,73.39
2022-12-05T02:04:21.710Z,73.07
2022-12-05T02:06:48.535Z,73.54
2022-12-05T02:09:15.593Z,73.52
2022-12-05T02:11:55.533Z,72.61
2022-12-05T02:14:22.224Z,73.58
2022-12-05T02:16:57.215Z,72.69
2022-12-05T02:19:55.867Z,71.91
2022-12-05T02:22:38.682Z,71.99
2022-12-05T02:25:37.803Z,71.72
2022-12-05T02:28:29.248Z,72.64
2022-12-05T02:31:03.222Z,73.18
2022-12-05T02:33:44.212Z,72.08
2022-12-05T02:36:39.387Z,71.41
2022-12-05T02:39:18.727Z,72.71
2022-12-05T02:41:58.000Z,71.43
2022-12-05T02:44:41.625Z,71.71
2022-12-05T02:47:09.953Z,71.87
2022-12-05T02:49:37.897Z,71.85
2022-12-05T02:52:09.138Z,71.75
2022-12-05T02:54:39.612Z,70.86
2022-12-05T02:57:08.719Z,71.38
2022-12-05T02:59:35.704Z,71.18
2022-12-05T03:02:02.443Z,71.63
2022-12-05T03:04:31.512Z,71.49
2022-12-05T03:07:06.990Z,70.54
2022-12-05T03:09:46.901Z,70.50
2022-12-05T03:12:20.552Z,70.40
2022-12-05T03:14:56.360Z,69.91
2022-12-05T03:17:26.464Z,70.52
2022-12-05T03:20:02.801Z,71.35
2022-12-05T03:22:41.346Z,71.70
2022-12-05T03:25:09.911Z,72.58
2022-12-05T03:28:15.021Z,73.42
2022-12-05T03:30:42.778Z,74.02
2022-12-05T03:33:20.271Z,74.76
2022-12-05T03:36:03.517Z,74.84
2022-12-05T03:38:40.463Z,74.92
2022-12-05T03:41:14.842Z,74.84
2022-12-05T03:44:01.525Z,74.47
2022-12-05T03:46:35.547Z,74.96
2022-12-05T03:49:13.489Z,74.41
2022-12-05T03:52:07.471Z,74.15
2022-12-05T03:54:57.705Z,74.18
2022-12-05T03:58:02.451Z,73.46
2022-12-05T04:00:36.448Z,73.88
2022-12-05T04:03:25.242Z,73.43
2022-12-05T04:05:58.047Z,73.51
2022-12-05T04:08:50.617Z,72.76
2022-12-05T04:11:21.493Z,72.62
2022-12-05T04:13:55.427Z,72.32
2022-12-05T04:17:01.909Z,71.84
2022-12-05T04:20:11.291Z,71.89
2022-12-05T04:22:39.752Z,71.93
2022-12-05T04:25:30.024Z,72.03
2022-12-05T04:28:05.838Z,71.72
2022-12-05T04:30:39.626Z,71.72
2022-12-05T04:33:17.741Z,71.69
2022-12-05T04:35:48.353Z,72.28
2022-12-05T04:38:25.173Z,72.22
2022-12-05T04:41:03.190Z,73.35
2022-12-05T04:43:37.025Z,73.79
2022-12-05T04:46:07.288Z,74.55
2022-12-05T04:48:35.752Z,75.32
2022-12-05T04:51:04.899Z,75.53
2022-12-05T04:53:33.490Z,76.29
2022-12-05T04:56:04.509Z,76.47
2022-12-05T04:58:32.475Z,77.02
2022-12-05T05:01:25.002Z,77.16
2022-12-05T05:03:58.508Z,77.25
2022-12-05T05:06:26.705Z,77.12
2022-12-05T05:08:56.519Z,77.02
2022-12-05T05:11:25.156Z,77.02
2022-12-05T05:13:52.588Z,77.54
2022-12-05T05:16:31.468Z,77.10
2022-12-05T05:18:58.224Z,77.39
2022-12-05T05:21:26.380Z,78.06
2022-12-05T05:23:54.128Z,78.19
2022-12-05T05:26:21.746Z,77.94
2022-12-05T05:28:49.449Z,78.16
2022-12-05T05:31:17.971Z,78.35
2022-12-05T05:33:48.326Z,79.09
2022-12-05T05:36:15.047Z,78.38
2022-12-05T05:38:45.086Z,79.06
2022-12-05T05:41:17.687Z,77.90
2022-12-05T05:43:45.172Z,78.51
2022-12-05T05:46:13.029Z,78.92
2022-12-05T05:48:40.294Z,79.10
2022-12-05T05:51:08.718Z,78.91
2022-12-05T05:53:35.719Z,79.04
2022-12-05T05:56:25.420Z,78.75
2022-12-05T05:59:00.565Z,79.45
2022-12-05T06:01:28.489Z,79.05
2022-12-05T06:03:55.392Z,79.32
2022-12-05T06:06:23.156Z,78.67
2022-12-05T06:08:49.979Z,78.53
2022-12-05T06:11:25.268Z,77.81
2022-12-05T06:13:53.791Z,77.43
2022-12-05T06:16:21.464Z,77.74
2022-12-05T06:18:49.917Z,77.49
2022-12-05T06:21:16.807Z,77.03
2022-12-05T06:23:43.883Z,77.63
2022-12-05T06:26:13.427Z,77.65
2022-12-05T06:28:40.465Z,77.68
2022-12-05T06:31:10.031Z,78.16
2022-12-05T06:33:37.580Z,77.14
2022-12-05T06:36:24.647Z,76.51
2022-12-05T06:38:51.371Z,77.13
2022-12-05T06:41:20.159Z,75.88
2022-12-05T06:43:47.336Z,74.95
2022-12-05T06:46:15.914Z,73.57
2022-12-05T06:48:42.775Z,73.56
2022-12-05T06:51:11.745Z,72.59
2022-12-05T06:53:39.897Z,72.91
2022-12-05T06:56:11.613Z,72.13
2022-12-05T06:58:38.690Z,72.96
2022-12-05T07:01:24.091Z,72.55
2022-12-05T07:03:51.625Z,73.44
2022-12-05T07:06:18.442Z,73.57
2022-12-05T07:08:45.237Z,72.22
2022-12-05T07:11:12.255Z,72.88
2022-12-05T07:13:39.031Z,72.33
2022-12-05T07:16:07.559Z,72.05
2022-12-05T07:18:36.111Z,73.70
2022-12-05T07:21:13.942Z,72.92
2022-12-05T07:23:45.820Z,71.32
2022-12-05T07:26:15.519Z,73.21
2022-12-05T07:28:42.616Z,72.33
2022-12-05T07:31:12.484Z,72.17
2022-12-05T07:33:39.252Z,71.74
2022-12-05T07:36:10.205Z,71.99
2022-12-05T07:38:37.391Z,71.00
2022-12-05T07:41:13.339Z,71.22
2022-12-05T07:43:41.725Z,71.55
2022-12-05T07:46:11.541Z,71.46
2022-12-05T07:48:39.105Z,72.39
2022-12-05T07:51:07.627Z,73.58
2022-12-05T07:53:34.719Z,72.36
2022-12-05T07:56:03.056Z,72.23
2022-12-05T07:58:30.463Z,72.75
2022-12-05T08:00:58.500Z,72.79
2022-12-05T08:03:25.384Z,72.91
2022-12-05T08:05:52.164Z,73.42
2022-12-05T08:08:18.941Z,73.27
2022-12-05T08:10:45.826Z,73.77
2022-12-05T08:13:13.866Z,73.23
2022-12-05T08:15:40.595Z,72.70
2022-12-05T08:18:07.447Z,72.91
2022-12-05T08:20:34.347Z,73.24
2022-12-05T08:23:01.059Z,72.83
2022-12-05T08:25:27.855Z,72.18
2022-12-05T08:27:54.579Z,72.96
2022-12-05T08:30:21.317Z,72.16
2022-12-05T08:32:48.118Z,72.70
2022-12-05T08:35:15.142Z,71.68
2022-12-05T08:37:41.880Z,71.62
2022-12-05T08:40:09.074Z,72.22
2022-12-05T08:42:35.825Z,72.41
2022-12-05T08:45:03.641Z,71.50
2022-12-05T08:47:32.370Z,71.95
2022-12-05T08:49:59.698Z,72.20
2022-12-05T08:52:26.680Z,70.94
2022-12-05T08:54:53.460Z,71.41
2022-12-05T08:57:20.197Z,70.95
2022-12-05T08:59:46.906Z,72.20
2022-12-05T09:02:13.946Z,71.84
2022-12-05T09:04:40.732Z,73.67
2022-12-05T09:07:08.390Z,74.12
2022-12-05T09:09:35.209Z,73.95
2022-12-05T09:12:01.906Z,72.69
2022-12-05T09:14:35.056Z,72.95
2022-12-05T09:17:01.950Z,72.74
2022-12-05T09:19:29.007Z,72.98
2022-12-05T09:21:57.179Z,73.24
2022-12-05T09:24:24.373Z,71.87
2022-12-05T09:26:51.584Z,72.71
2022-12-05T09:29:18.466Z,71.65
2022-12-05T09:31:48.313Z,70.39
2022-12-05T09:34:15.841Z,69.93
2022-12-05T09:36:43.852Z,69.10
2022-12-05T09:39:11.064Z,69.69
2022-12-05T09:42:04.970Z,70.40
2022-12-05T09:44:48.263Z,71.64
2022-12-05T09:47:24.084Z,69.83
2022-12-05T09:50:02.592Z,68.41
2022-12-05T09:52:37.764Z,69.31
2022-12-05T09:55:16.815Z,68.60
2022-12-05T09:57:56.650Z,68.50
2022-12-05T10:00:24.000Z,69.71
2022-12-05T10:03:12.414Z,68.04
2022-12-05T10:05:53.332Z,68.67
2022-12-05T10:08:22.942Z,66.71
2022-12-05T10:11:28.282Z,67.83
2022-12-05T10:14:08.924Z,67.57
2022-12-05T10:16:58.825Z,67.58
2022-12-05T10:19:31.968Z,68.54
2022-12-05T10:22:04.634Z,66.85
2022-12-05T10:24:43.318Z,68.95
2022-12-05T10:27:20.234Z,66.99
2022-12-05T10:30:13.764Z,67.19
2022-12-05T10:32:48.296Z,66.93
2022-12-05T10:35:22.284Z,67.76
2022-12-05T10:37:53.336Z,67.52
2022-12-05T10:40:20.910Z,66.33
2022-12-05T10:42:49.326Z,67.28
2022-12-05T10:45:20.756Z,66.24
2022-12-05T10:47:49.123Z,66.61
2022-12-05T10:50:38.680Z,67.06
2022-12-05T10:53:07.156Z,66.26
2022-12-05T10:55:41.200Z,66.80
2022-12-05T10:58:17.848Z,66.77
2022-12-05T11:00:51.844Z,68.05
2022-12-05T11:03:27.246Z,65.96
2022-12-05T11:05:56.774Z,67.59
2022-12-05T11:08:48.264Z,67.97
2022-12-05T11:11:23.888Z,67.34
2022-12-05T11:14:04.503Z,67.46
2022-12-05T11:16:33.719Z,67.25
2022-12-05T11:19:24.297Z,67.52
2022-12-05T11:21:51.959Z,68.73
2022-12-05T11:24:38.987Z,68.05
2022-12-05T11:27:18.222Z,67.59
2022-12-05T11:29:55.288Z,68.07
2022-12-05T11:32:28.288Z,69.31
2022-12-05T11:35:13.195Z,68.19
2022-12-05T11:37:59.335Z,67.43
2022-12-05T11:40:59.278Z,68.27
2022-12-05T11:43:47.824Z,68.61
2022-12-05T11:46:36.561Z,69.80
2022-12-05T11:49:32.642Z,67.98
2022-12-05T11:52:14.172Z,67.70
2022-12-05T11:55:06.546Z,69.30
2022-12-05T11:57:52.797Z,68.58
2022-12-05T12:00:29.264Z,69.63
2022-12-05T12:03:02.223Z,69.16
2022-12-05T12:05:53.504Z,69.42
2022-12-05T12:08:26.329Z,70.26
2022-12-05T12:10:59.857Z,72.66
2022-12-05T12:13:52.350Z,74.32
2022-12-05T12:16:45.520Z,74.76
2022-12-05T12:20:03.430Z,75.21
2022-12-05T12:22:39.076Z,75.76
2022-12-05T12:25:31.970Z,75.04
2022-12-05T12:28:32.448Z,74.72
2022-12-05T12:31:07.970Z,74.50
2022-12-05T12:33:41.948Z,75.50
2022-12-05T12:36:26.705Z,76.01
2022-12-05T12:39:30.657Z,76.92
2022-12-05T12:42:09.873Z,78.42
2022-12-05T12:45:02.292Z,79.10
2022-12-05T12:48:03.120Z,80.66
2022-12-05T12:50:38.964Z,81.62
2022-12-05T12:53:10.041Z,81.79
2022-12-05T12:56:08.690Z,81.62
2022-12-05T12:58:54.439Z,81.21
2022-12-05T13:01:30.364Z,81.09
2022-12-05T13:04:12.534Z,79.33
2022-12-05T13:06:45.312Z,79.37
2022-12-05T13:09:16.949Z,78.35
2022-12-05T13:11:45.756Z,78.40
2022-12-05T13:14:16.168Z,77.34
2022-12-05T13:16:49.172Z,77.56
2022-12-05T13:19:46.883Z,75.67
2022-12-05T13:22:15.403Z,77.64
2022-12-05T13:24:42.941Z,76.65
2022-12-05T13:27:19.379Z,76.17
2022-12-05T13:29:51.180Z,74.41
2022-12-05T13:32:44.254Z,71.79
2022-12-05T13:35:12.095Z,73.98
2022-12-05T13:38:05.807Z,73.42
2022-12-05T13:40:53.771Z,72.03
2022-12-05T13:43:28.563Z,72.66
2022-12-05T13:46:05.602Z,72.08
2022-12-05T13:48:36.159Z,73.39
2022-12-05T13:51:22.922Z,72.34
2022-12-05T13:54:01.284Z,71.29
2022-12-05T13:56:47.859Z,72.73
2022-12-05T13:59:53.297Z,72.44
2022-12-05T14:02:41.947Z,70.48
2022-12-05T14:05:14.907Z,71.48
2022-12-05T14:07:47.158Z,72.58
2022-12-05T14:10:17.162Z,73.02
2022-12-05T14:12:49.008Z,73.20
2022-12-05T14:15:35.664Z,72.53
2022-12-05T14:18:10.627Z,72.53
2022-12-05T14:21:04.639Z,72.77
2022-12-05T14:23:56.155Z,71.85
2022-12-05T14:26:41.714Z,69.78
2022-12-05T14:29:22.642Z,72.28
2022-12-05T14:32:04.731Z,71.63
2022-12-05T14:34:35.347Z,71.42
2022-12-05T14:37:17.181Z,71.29
2022-12-05T14:39:53.984Z,71.88
2022-12-05T14:42:35.920Z,71.42
2022-12-05T14:45:37.501Z,70.50
2022-12-05T14:48:28.609Z,72.75
2022-12-05T14:50:57.090Z,72.75
2022-12-05T14:53:32.509Z,71.83
2022-12-05T14:56:16.310Z,70.33
2022-12-05T14:58:51.451Z,71.12
2022-12-05T15:01:35.551Z,70.13
2022-12-05T15:04:05.258Z,70.54
2022-12-05T15:06:57.945Z,69.82
2022-12-05T15:09:38.506Z,72.34
2022-12-05T15:12:12.425Z,71.09
2022-12-05T15:14:48.362Z,70.98
2022-12-05T15:17:22.593Z,71.07
2022-12-05T15:20:00.455Z,71.29
2022-12-05T15:22:29.288Z,69.87
2022-12-05T15:24:56.210Z,69.97
2022-12-05T15:27:25.385Z,70.26
2022-12-05T15:29:55.048Z,68.41
2022-12-05T15:32:27.446Z,70.14
2022-12-05T15:34:58.523Z,71.58
2022-12-05T15:37:48.318Z,69.13
2022-12-05T15:40:18.120Z,71.86
2022-12-05T15:42:50.523Z,71.87
2022-12-05T15:45:24.162Z,70.87
2022-12-05T15:47:56.825Z,71.38
2022-12-05T15:50:23.470Z,71.06
2022-12-05T15:53:14.341Z,70.60
2022-12-05T15:56:05.100Z,70.84
2022-12-05T15:58:37.768Z,71.23
2022-12-05T16:01:09.418Z,72.69
2022-12-05T16:03:42.381Z,72.53
2022-12-05T16:06:20.445Z,72.30
2022-12-05T16:08:49.571Z,73.08
2022-12-05T16:11:17.760Z,72.32
2022-12-05T16:13:47.975Z,71.64
2022-12-05T16:16:16.914Z,70.72
2022-12-05T16:18:53.000Z,72.23
2022-12-05T16:21:39.301Z,71.68
2022-12-05T16:24:14.132Z,73.41
2022-12-05T16:26:41.160Z,73.22
2022-12-05T16:29:26.279Z,71.70
2022-12-05T16:31:56.475Z,71.63
2022-12-05T16:34:23.995Z,72.81
2022-12-05T16:36:52.943Z,72.79
2022-12-05T16:39:21.395Z,73.29
2022-12-05T16:41:50.193Z,71.68
2022-12-05T16:44:28.851Z,71.45
2022-12-05T16:46:56.806Z,72.42
2022-12-05T16:49:33.609Z,71.12
2022-12-05T16:52:00.346Z,73.20
2022-12-05T16:54:27.239Z,72.58
2022-12-05T16:56:54.612Z,73.16
2022-12-05T16:59:31.483Z,72.43
2022-12-05T17:01:58.602Z,73.43
2022-12-05T17:04:25.421Z,73.61
2022-12-05T17:06:52.160Z,74.50
2022-12-05T17:09:19.079Z,74.30
2022-12-05T17:11:49.808Z,74.31
2022-12-05T17:14:18.328Z,74.74
2022-12-05T17:16:45.586Z,75.29
2022-12-05T17:19:13.275Z,75.55
2022-12-05T17:21:44.803Z,75.11
2022-12-05T17:24:19.032Z,75.13
2022-12-05T17:26:47.470Z,75.87
2022-12-05T17:29:14.203Z,75.45
2022-12-05T17:31:41.137Z,74.82
2022-12-05T17:34:17.068Z,73.56
2022-12-05T17:36:44.999Z,74.21
2022-12-05T17:39:12.203Z,74.77
2022-12-05T17:41:38.935Z,74.69
2022-12-05T17:44:06.389Z,73.71
2022-12-05T17:46:33.574Z,74.99
2022-12-05T17:49:00.462Z,75.62
2022-12-05T17:51:27.571Z,75.36
2022-12-05T17:53:54.665Z,75.46
2022-12-05T17:56:21.940Z,74.98
2022-12-05T17:58:49.614Z,74.45
2022-12-05T18:01:19.530Z,74.82
2022-12-05T18:03:47.371Z,75.07
2022-12-05T18:06:14.554Z,74.88
2022-12-05T18:08:44.106Z,74.45
2022-12-05T18:11:12.217Z,74.82
2022-12-05T18:13:39.147Z,75.39
2022-12-05T18:16:06.259Z,76.21
2022-12-05T18:18:33.539Z,76.39
2022-12-05T18:21:08.797Z,75.92
2022-12-05T18:23:36.735Z,76.05
2022-12-05T18:26:04.832Z,76.86
2022-12-05T18:28:31.972Z,75.72
2022-12-05T18:31:06.004Z,75.15
2022-12-05T18:33:32.872Z,75.91
2022-12-05T18:36:05.024Z,74.29
2022-12-05T18:38:31.762Z,75.35
2022-12-05T18:41:02.942Z,74.68
2022-12-05T18:43:30.144Z,74.94
2022-12-05T18:45:58.834Z,75.09
2022-12-05T18:48:46.056Z,76.14
2022-12-05T18:51:14.245Z,75.07
2022-12-05T18:53:41.602Z,75.02
2022-12-05T18:56:26.829Z,75.17
2022-12-05T18:58:57.695Z,74.76
2022-12-05T19:01:25.801Z,75.16
2022-12-05T19:03:53.051Z,74.92
2022-12-05T19:06:22.327Z,74.52
2022-12-05T19:08:49.903Z,74.50
2022-12-05T19:11:19.538Z,74.15
2022-12-05T19:13:47.775Z,74.22
2022-12-05T19:16:16.961Z,74.41
2022-12-05T19:18:44.223Z,74.02
2022-12-05T19:21:12.605Z,73.91
2022-12-05T19:23:39.541Z,73.77
2022-12-05T19:26:07.990Z,73.50
2022-12-05T19:28:36.594Z,72.65
2022-12-05T19:31:09.488Z,72.22
2022-12-05T19:33:39.560Z,72.99
2022-12-05T19:36:21.796Z,72.30
2022-12-05T19:38:50.875Z,72.83
2022-12-05T19:41:20.490Z,72.75
2022-12-05T19:43:47.475Z,73.23
2022-12-05T19:46:19.278Z,73.52
2022-12-05T19:48:46.800Z,73.80
2022-12-05T19:51:14.319Z,73.58
2022-12-05T19:53:42.445Z,73.09
2022-12-05T19:56:26.014Z,72.73
2022-12-05T19:58:55.736Z,73.38
2022-12-05T20:01:25.779Z,73.32
2022-12-05T20:03:58.613Z,73.39
2022-12-05T20:06:25.922Z,73.07
2022-12-05T20:08:53.256Z,72.86
2022-12-05T20:11:24.939Z,73.01
2022-12-05T20:13:53.589Z,73.13
2022-12-05T20:16:22.140Z,73.55
2022-12-05T20:18:50.120Z,73.70
2022-12-05T20:21:19.617Z,73.56
2022-12-05T20:23:46.492Z,73.68
2022-12-05T20:26:17.111Z,73.58
2022-12-05T20:28:44.535Z,73.65
2022-12-05T20:31:20.160Z,73.06
2022-12-05T20:33:47.196Z,73.40
2022-12-05T20:36:16.952Z,73.54
2022-12-05T20:38:44.623Z,73.70
2022-12-05T20:41:15.556Z,73.44
2022-12-05T20:43:44.040Z,73.32
2022-12-05T20:46:13.624Z,73.31
2022-12-05T20:48:40.913Z,73.45
2022-12-05T20:51:13.510Z,73.31
2022-12-05T20:53:43.664Z,73.25
2022-12-05T20:56:14.873Z,73.86
2022-12-05T20:58:43.974Z,73.92
2022-12-05T21:01:11.977Z,73.75
2022-12-05T21:03:43.612Z,73.50
2022-12-05T21:06:13.841Z,73.66
2022-12-05T21:08:40.477Z,74.15
2022-12-05T21:11:10.092Z,73.97
2022-12-05T21:13:36.873Z,73.50
2022-12-05T21:16:10.335Z,73.14
2022-12-05T21:18:37.532Z,73.22
2022-12-05T21:21:07.532Z,73.13
2022-12-05T21:23:35.293Z,73.03
2022-12-05T21:26:10.880Z,73.16
2022-12-05T21:28:37.799Z,73.01
2022-12-05T21:31:18.012Z,73.03
2022-12-05T21:33:47.401Z,73.65
2022-12-05T21:36:14.468Z,73.42
2022-12-05T21:38:41.329Z,73.38
2022-12-05T21:41:10.260Z,73.18
2022-12-05T21:43:37.116Z,73.18
2022-12-05T21:46:04.801Z,73.10
2022-12-05T21:48:33.536Z,73.08
2022-12-05T21:51:00.452Z,73.06
2022-12-05T21:53:27.409Z,72.91
2022-12-05T21:56:07.072Z,72.79
2022-12-05T21:58:36.876Z,73.01
2022-12-05T22:01:06.755Z,73.00
2022-12-05T22:03:33.955Z,73.11
2022-12-05T22:06:09.150Z,72.95
2022-12-05T22:08:36.764Z,72.68
2022-12-05T22:11:08.457Z,72.78
2022-12-05T22:13:35.875Z,72.69
2022-12-05T22:16:03.776Z,72.83
2022-12-05T22:18:31.711Z,72.91
2022-12-05T22:21:00.146Z,72.79
2022-12-05T22:23:27.505Z,72.82
2022-12-05T22:26:04.051Z,73.04
2022-12-05T22:28:31.561Z,72.96
2022-12-05T22:31:00.228Z,73.02
2022-12-05T22:33:28.520Z,72.97
2022-12-05T22:35:57.683Z,73.22
2022-12-05T22:38:30.561Z,73.27
2022-12-05T22:41:02.657Z,73.37
2022-12-05T22:43:31.805Z,73.20
2022-12-05T22:46:02.602Z,73.41
2022-12-05T22:48:29.331Z,73.60
2022-12-05T22:50:56.180Z,73.82
2022-12-05T22:53:24.350Z,74.22
2022-12-05T22:55:51.820Z,73.95
2022-12-05T22:58:19.268Z,74.06
2022-12-05T23:00:46.725Z,74.35
2022-12-05T23:03:13.698Z,74.19
2022-12-05T23:05:42.126Z,74.41
2022-12-05T23:08:09.371Z,74.32
2022-12-05T23:10:37.831Z,74.37
2022-12-05T23:13:05.307Z,74.22
2022-12-05T23:15:32.091Z,74.08
2022-12-05T23:17:59.080Z,73.97
2022-12-05T23:20:26.329Z,73.71
2022-12-05T23:22:53.084Z,73.64
2022-12-05T23:25:19.773Z,73.63
2022-12-05T23:27:46.519Z,73.34
2022-12-05T23:30:14.959Z,73.41
2022-12-05T23:32:41.680Z,73.48
2022-12-05T23:35:11.000Z,73.71
2022-12-05T23:37:38.040Z,73.67
2022-12-05T23:40:06.198Z,74.02
2022-12-05T23:42:32.946Z,74.49
2022-12-05T23:44:59.851Z,74.71
2022-12-05T23:47:28.853Z,74.69
2022-12-05T23:49:55.849Z,74.79
2022-12-05T23:52:22.658Z,74.77
2022-12-05T23:54:49.446Z,74.53
2022-12-05T23:57:17.742Z,74.39
2022-12-05T23:59:45.632Z,73.86
